Flight Track Log - Related Links

Times and Time Zones

All times are in EDT time to prevent confusion due to time zone crossing. See the MTN7305 flight status page for this flight to view local times or setup timezone preferences in your user account.

Time Position Orientation Groundspeed Altitude Reporting Facility
EDT Latitude Longitude Course Direction KTS MPH feet Rate Location/Type
Mon 11:02:47 PM 39.2000 -76.6833 30° Northeast 74 85 1,300  Level Potomac TRACON
Mon 11:03:47 PM 39.2333 -76.6833 360° North 103 119 2,000 773 Climbing Potomac TRACON
Mon 11:04:59 PM 39.2500 -76.6500 57° Northeast 105 121 3,000 773 Climbing Potomac TRACON
Mon 11:05:59 PM 39.2667 -76.6167 57° Northeast 110 127 3,700 684 Climbing Potomac TRACON
Mon 11:06:53 PM 39.2833 -76.6000 38° Northeast 115 132 4,300 765 Climbing Potomac TRACON
Mon 11:07:41 PM 39.3000 -76.5667 57° Northeast 117 135 5,000 350 Climbing Potomac TRACON
Mon 11:08:00 PM 39.4682 -76.3906 30° Northeast  Level FlightAware Approximate
Mon 11:08:53 PM 39.3333 -76.5333 38° Northeast 155 178 5,000  Level Potomac TRACON
Mon 11:09:41 PM 39.3667 -76.4833 49° Northeast 161 185 5,000  Level Potomac TRACON
Mon 11:10:35 PM 39.3833 -76.4500 57° Northeast 164 189 5,000  Level Potomac TRACON
Mon 11:11:35 PM 39.4167 -76.4000 49° Northeast 166 191 5,000  Level Potomac TRACON
Mon 11:12:35 PM 39.4500 -76.3667 38° Northeast 164 189 5,000  Level Potomac TRACON
Mon 11:13:35 PM 39.4833 -76.3167 49° Northeast 164 189 5,000  Level Potomac TRACON
Mon 11:14:35 PM 39.5167 -76.2833 38° Northeast 167 192 5,000 36 Level Potomac TRACON
Mon 11:16:24 PM 39.5667 -76.2000 52° Northeast 166 191 5,100 34 Climbing Philadelphia TRACON
Mon 11:17:30 PM 39.6000 -76.1500 49° Northeast 162 186 5,100 -48 Level Philadelphia TRACON
Mon 11:18:30 PM 39.6333 -76.1000 49° Northeast 162 186 5,000  Descending Philadelphia TRACON
Mon 11:19:30 PM 39.6667 -76.0500 49° Northeast 164 189 5,100 53 Climbing Philadelphia TRACON
Mon 11:20:24 PM 39.6833 -76.0167 57° Northeast 163 188 5,100 -53 Level Philadelphia TRACON
Mon 11:21:24 PM 39.7167 -75.9833 38° Northeast 164 189 5,000 -53 Descending Philadelphia TRACON
Mon 11:22:18 PM 39.7500 -75.9333 49° Northeast 166 191 5,000 56 Level Philadelphia TRACON
Mon 11:23:12 PM 39.7667 -75.9000 57° Northeast 165 190 5,100 53 Climbing Philadelphia TRACON
Mon 11:24:12 PM 39.8000 -75.8500 49° Northeast 164 189 5,100 -56 Level Philadelphia TRACON
Mon 11:25:00 PM 39.8167 -75.8167 57° Northeast 164 189 5,000 -56 Descending Philadelphia TRACON
Mon 11:26:00 PM 39.8500 -75.7667 49° Northeast 165 190 5,000 50 Level Philadelphia TRACON
Mon 11:27:00 PM 39.8833 -75.7333 37° Northeast 165 190 5,100  Climbing Philadelphia TRACON
Mon 11:28:01 PM 39.9167 -75.6833 49° Northeast 165 190 5,000 -48 Descending Philadelphia TRACON
Mon 11:29:06 PM 39.9333 -75.6167 72° East 167 192 5,000 48 Level Philadelphia TRACON
Mon 11:30:06 PM 39.9667 -75.5667 49° Northeast 169 194 5,100 50 Climbing Philadelphia TRACON
Mon 11:31:06 PM 39.9833 -75.5167 66° East 171 197 5,100  Level Philadelphia TRACON
Mon 11:32:06 PM 40.0167 -75.4667 49° Northeast 173 199 5,100  Level Philadelphia TRACON
Mon 11:33:13 PM 40.0333 -75.4000 72° East 171 197 5,100 -47 Level Philadelphia TRACON
Mon 11:34:13 PM 40.0667 -75.3500 49° Northeast 171 197 5,000 -50 Descending Philadelphia TRACON
Mon 11:35:13 PM 40.0833 -75.3000 66° East 170 196 5,000  Level Philadelphia TRACON
Mon 11:36:13 PM 40.1167 -75.2333 57° Northeast 171 197 5,000 50 Level Philadelphia TRACON
Mon 11:37:13 PM 40.1333 -75.1833 66° East 170 196 5,100 50 Climbing Philadelphia TRACON
Mon 11:38:13 PM 40.1500 -75.1333 66° East 170 196 5,100  Level Philadelphia TRACON
Mon 11:38:49 PM 40.1667 -75.1000 57° Northeast 172 198 5,100  Level New York TRACON
Mon 11:39:37 PM 40.1833 -75.0667 57° Northeast 172 198 5,100  Level New York TRACON
Mon 11:40:43 PM 40.2167 -75.0000 57° Northeast 176 203 5,100  Level New York TRACON
Mon 11:41:43 PM 40.2333 -74.9500 66° East 173 199 5,100  Level New York TRACON
Mon 11:42:49 PM 40.2667 -74.8833 57° Northeast 175 201 5,100  Level New York TRACON
Mon 11:43:43 PM 40.2833 -74.8333 66° East 174 200 5,100  Level New York TRACON
Mon 11:44:43 PM 40.3167 -74.7833 49° Northeast 177 204 5,100 -48 Level New York TRACON
Mon 11:45:49 PM 40.3333 -74.7167 72° East 176 203 5,000 -286 Descending New York TRACON
Mon 11:46:49 PM 40.3500 -74.6500 72° East 189 217 4,500 -474 Descending New York TRACON
Mon 11:47:43 PM 40.3833 -74.6000 49° Northeast 188 216 4,100 -421 Descending New York TRACON
Mon 11:48:43 PM 40.4000 -74.5500 66° East 179 206 3,700 -450 Descending New York TRACON
Mon 11:49:43 PM 40.4333 -74.4833 57° Northeast 179 206 3,200 -300 Descending New York TRACON
Mon 11:50:43 PM 40.4500 -74.4333 66° East 163 188 3,100 -95 Descending New York TRACON
Mon 11:51:49 PM 40.4833 -74.3833 49° Northeast 160 184 3,000  Descending New York TRACON
Mon 11:52:43 PM 40.5167 -74.3500 37° Northeast 164 189 3,100 -105 Climbing New York TRACON
Mon 11:53:43 PM 40.5500 -74.3000 49° Northeast 166 191 2,800 -400 Descending New York TRACON
Mon 11:54:43 PM 40.5833 -74.2667 37° Northeast 165 190 2,300 -350 Descending New York TRACON
Mon 11:55:43 PM 40.6000 -74.2167 66° East 144 166 2,100 -667 Descending New York TRACON
Mon 11:56:49 PM 40.6500 -74.2000 14° North 140 161 900 -1,091 Descending New York TRACON
Mon 11:58:00 PM 40.6833 -74.1667 52° Northeast  Level FlightAware Approximate
Tue 12:05:00 AM 40.6925 -74.1687 52° Northeast  Level Estimated
Tue 12:06:00 AM 40.6925 -74.1687 52° Northeast  Level Estimated

Login

Don't have an account? Register now (free) for customized features, flight alerts, and more!